sensor_id;sensor_type;location;lat;lon;timestamp;pressure;altitude;pressure_sealevel;temperature;humidity
70968;BME280;58629;48.808;8.820;2023-04-01T00:01:45;95767.84;;;7.83;85.63
70968;BME280;58629;48.808;8.820;2023-04-01T00:04:10;95772.94;;;7.90;85.00
70968;BME280;58629;48.808;8.820;2023-04-01T00:06:36;95767.72;;;7.86;86.10
70968;BME280;58629;48.808;8.820;2023-04-01T00:09:01;95774.28;;;7.82;87.49
70968;BME280;58629;48.808;8.820;2023-04-01T00:11:26;95771.22;;;7.83;85.25
70968;BME280;58629;48.808;8.820;2023-04-01T00:13:53;95769.53;;;7.89;85.58
70968;BME280;58629;48.808;8.820;2023-04-01T00:16:18;95770.38;;;7.99;82.77
70968;BME280;58629;48.808;8.820;2023-04-01T00:18:43;95764.38;;;7.99;83.34
70968;BME280;58629;48.808;8.820;2023-04-01T00:21:09;95761.72;;;7.99;83.05
70968;BME280;58629;48.808;8.820;2023-04-01T00:23:34;95774.28;;;7.95;84.03
70968;BME280;58629;48.808;8.820;2023-04-01T00:26:02;95766.78;;;7.93;83.94
70968;BME280;58629;48.808;8.820;2023-04-01T00:28:28;95768.94;;;7.98;83.06
70968;BME280;58629;48.808;8.820;2023-04-01T00:30:53;95779.16;;;7.96;83.09
70968;BME280;58629;48.808;8.820;2023-04-01T00:33:18;95768.06;;;8.01;81.70
70968;BME280;58629;48.808;8.820;2023-04-01T00:35:45;95782.28;;;8.16;81.39
70968;BME280;58629;48.808;8.820;2023-04-01T00:38:11;95778.19;;;8.15;82.27
70968;BME280;58629;48.808;8.820;2023-04-01T00:40:39;95772.59;;;8.13;82.22
70968;BME280;58629;48.808;8.820;2023-04-01T00:43:12;95769.53;;;8.15;82.73
70968;BME280;58629;48.808;8.820;2023-04-01T00:45:40;95776.38;;;8.12;82.49
70968;BME280;58629;48.808;8.820;2023-04-01T00:48:22;95778.63;;;8.26;81.58
70968;BME280;58629;48.808;8.820;2023-04-01T00:50:55;95777.47;;;8.27;81.65
70968;BME280;58629;48.808;8.820;2023-04-01T00:53:23;95774.41;;;8.29;81.39
70968;BME280;58629;48.808;8.820;2023-04-01T00:55:54;95775.13;;;8.17;83.42
70968;BME280;58629;48.808;8.820;2023-04-01T00:58:23;95769.03;;;8.07;85.04
70968;BME280;58629;48.808;8.820;2023-04-01T01:00:51;95757.63;;;8.10;84.83
70968;BME280;58629;48.808;8.820;2023-04-01T01:03:17;95773.88;;;8.09;83.14
70968;BME280;58629;48.808;8.820;2023-04-01T01:11:20;95778.00;;;8.10;82.91
70968;BME280;58629;48.808;8.820;2023-04-01T01:16:53;95768.47;;;8.12;82.04
70968;BME280;58629;48.808;8.820;2023-04-01T01:25:06;95771.44;;;8.02;82.82
70968;BME280;58629;48.808;8.820;2023-04-01T01:27:33;95764.78;;;7.97;83.86
70968;BME280;58629;48.808;8.820;2023-04-01T01:30:07;95777.03;;;8.04;83.53
70968;BME280;58629;48.808;8.820;2023-04-01T01:35:43;95779.34;;;8.02;85.23
70968;BME280;58629;48.808;8.820;2023-04-01T01:38:14;95781.47;;;7.94;86.49
70968;BME280;58629;48.808;8.820;2023-04-01T01:40:43;95775.25;;;7.88;87.56
70968;BME280;58629;48.808;8.820;2023-04-01T01:43:12;95775.97;;;7.88;86.24
70968;BME280;58629;48.808;8.820;2023-04-01T01:45:44;95779.22;;;7.93;86.48
70968;BME280;58629;48.808;8.820;2023-04-01T01:48:11;95768.47;;;7.87;87.17
70968;BME280;58629;48.808;8.820;2023-04-01T01:50:38;95773.31;;;7.88;87.17
70968;BME280;58629;48.808;8.820;2023-04-01T01:53:07;95773.31;;;7.88;86.03
70968;BME280;58629;48.808;8.820;2023-04-01T01:55:36;95762.06;;;7.88;85.87
70968;BME280;58629;48.808;8.820;2023-04-01T01:58:23;95756.78;;;7.88;85.44
70968;BME280;58629;48.808;8.820;2023-04-01T02:00:53;95780.50;;;7.88;84.90
70968;BME280;58629;48.808;8.820;2023-04-01T02:03:21;95765.22;;;7.83;84.74
70968;BME280;58629;48.808;8.820;2023-04-01T02:05:50;95777.63;;;7.82;85.69
70968;BME280;58629;48.808;8.820;2023-04-01T02:08:24;95763.00;;;7.81;84.97
70968;BME280;58629;48.808;8.820;2023-04-01T02:11:02;95769.34;;;7.84;84.65
70968;BME280;58629;48.808;8.820;2023-04-01T02:14:27;95764.91;;;7.94;84.09
70968;BME280;58629;48.808;8.820;2023-04-01T02:16:31;95768.06;;;7.88;85.17
70968;BME280;58629;48.808;8.820;2023-04-01T02:18:58;95769.09;;;7.78;84.23
70968;BME280;58629;48.808;8.820;2023-04-01T02:21:28;95761.19;;;7.78;84.25
70968;BME280;58629;48.808;8.820;2023-04-01T02:23:56;95766.38;;;7.82;83.67
70968;BME280;58629;48.808;8.820;2023-04-01T02:26:23;95773.13;;;7.83;83.76
70968;BME280;58629;48.808;8.820;2023-04-01T02:28:51;95764.69;;;7.75;83.41
70968;BME280;58629;48.808;8.820;2023-04-01T02:31:18;95766.56;;;7.75;84.00
70968;BME280;58629;48.808;8.820;2023-04-01T02:33:44;95771.84;;;7.75;85.04
70968;BME280;58629;48.808;8.820;2023-04-01T02:36:12;95771.72;;;7.66;84.24
70968;BME280;58629;48.808;8.820;2023-04-01T02:38:38;95771.31;;;7.67;84.10
70968;BME280;58629;48.808;8.820;2023-04-01T02:41:04;95780.78;;;7.65;83.58
70968;BME280;58629;48.808;8.820;2023-04-01T02:43:31;95761.50;;;7.68;84.65
70968;BME280;58629;48.808;8.820;2023-04-01T02:45:56;95760.53;;;7.62;83.25
70968;BME280;58629;48.808;8.820;2023-04-01T02:48:21;95763.59;;;7.60;83.82
70968;BME280;58629;48.808;8.820;2023-04-01T02:50:47;95758.75;;;7.59;84.86
70968;BME280;58629;48.808;8.820;2023-04-01T02:53:12;95772.78;;;7.68;83.62
70968;BME280;58629;48.808;8.820;2023-04-01T02:55:37;95782.25;;;7.66;82.90
70968;BME280;58629;48.808;8.820;2023-04-01T02:58:03;95784.59;;;7.64;83.71
70968;BME280;58629;48.808;8.820;2023-04-01T03:00:29;95774.22;;;7.57;85.31
70968;BME280;58629;48.808;8.820;2023-04-01T03:02:55;95773.38;;;7.47;86.41
70968;BME280;58629;48.808;8.820;2023-04-01T03:05:21;95773.69;;;7.49;86.27
70968;BME280;58629;48.808;8.820;2023-04-01T03:07:46;95770.19;;;7.40;87.76
70968;BME280;58629;48.808;8.820;2023-04-01T03:10:12;95770.94;;;7.40;88.39
70968;BME280;58629;48.808;8.820;2023-04-01T03:12:37;95766.69;;;7.30;89.37
70968;BME280;58629;48.808;8.820;2023-04-01T03:15:03;95762.88;;;7.31;90.21
70968;BME280;58629;48.808;8.820;2023-04-01T03:17:28;95766.16;;;7.23;91.17
70968;BME280;58629;48.808;8.820;2023-04-01T03:19:53;95760.31;;;7.15;91.43
70968;BME280;58629;48.808;8.820;2023-04-01T03:22:19;95763.03;;;7.12;91.90
70968;BME280;58629;48.808;8.820;2023-04-01T03:24:49;95764.44;;;7.16;90.86
70968;BME280;58629;48.808;8.820;2023-04-01T03:27:14;95770.59;;;7.10;88.96
70968;BME280;58629;48.808;8.820;2023-04-01T03:29:40;95759.59;;;7.15;89.24
70968;BME280;58629;48.808;8.820;2023-04-01T03:32:05;95764.91;;;7.11;89.23
70968;BME280;58629;48.808;8.820;2023-04-01T03:34:31;95766.09;;;7.10;88.54
70968;BME280;58629;48.808;8.820;2023-04-01T03:36:57;95769.16;;;7.09;89.16
70968;BME280;58629;48.808;8.820;2023-04-01T03:39:22;95763.88;;;7.09;87.70
70968;BME280;58629;48.808;8.820;2023-04-01T03:41:48;95760.41;;;7.12;87.37
70968;BME280;58629;48.808;8.820;2023-04-01T03:44:13;95763.47;;;7.10;87.80
70968;BME280;58629;48.808;8.820;2023-04-01T03:46:39;95759.66;;;7.11;87.75
70968;BME280;58629;48.808;8.820;2023-04-01T03:49:10;95755.13;;;7.12;85.97
70968;BME280;58629;48.808;8.820;2023-04-01T03:51:40;95753.25;;;7.12;86.24
70968;BME280;58629;48.808;8.820;2023-04-01T03:54:06;95760.50;;;7.08;86.57
70968;BME280;58629;48.808;8.820;2023-04-01T03:56:32;95760.41;;;7.12;86.39
70968;BME280;58629;48.808;8.820;2023-04-01T03:58:57;95757.19;;;7.20;86.42
70968;BME280;58629;48.808;8.820;2023-04-01T04:01:23;95757.63;;;7.31;85.14
70968;BME280;58629;48.808;8.820;2023-04-01T04:03:49;95753.00;;;7.35;84.43
70968;BME280;58629;48.808;8.820;2023-04-01T04:06:15;95744.78;;;7.33;83.91
70968;BME280;58629;48.808;8.820;2023-04-01T04:08:41;95744.50;;;7.44;84.55
70968;BME280;58629;48.808;8.820;2023-04-01T04:11:06;95749.03;;;7.43;85.26
70968;BME280;58629;48.808;8.820;2023-04-01T04:13:32;95744.59;;;7.40;84.45
70968;BME280;58629;48.808;8.820;2023-04-01T04:15:58;95732.19;;;7.53;85.01
70968;BME280;58629;48.808;8.820;2023-04-01T04:18:23;95756.41;;;7.48;83.77
70968;BME280;58629;48.808;8.820;2023-04-01T04:20:49;95754.75;;;7.67;84.12
70968;BME280;58629;48.808;8.820;2023-04-01T04:23:16;95759.78;;;7.49;85.99
70968;BME280;58629;48.808;8.820;2023-04-01T04:25:53;95756.31;;;7.52;85.77
70968;BME280;58629;48.808;8.820;2023-04-01T04:28:18;95747.56;;;7.42;86.42
70968;BME280;58629;48.808;8.820;2023-04-01T04:30:44;95753.31;;;7.37;87.42
70968;BME280;58629;48.808;8.820;2023-04-01T04:33:09;95745.41;;;7.25;88.38
70968;BME280;58629;48.808;8.820;2023-04-01T04:35:34;95741.06;;;7.18;88.41
70968;BME280;58629;48.808;8.820;2023-04-01T04:38:00;95734.66;;;7.32;87.86
70968;BME280;58629;48.808;8.820;2023-04-01T04:40:25;95743.50;;;7.25;87.28
70968;BME280;58629;48.808;8.820;2023-04-01T04:42:50;95727.69;;;7.25;86.90
70968;BME280;58629;48.808;8.820;2023-04-01T04:45:15;95734.03;;;7.28;86.28
70968;BME280;58629;48.808;8.820;2023-04-01T04:47:41;95731.50;;;7.24;87.37
70968;BME280;58629;48.808;8.820;2023-04-01T04:50:07;95738.00;;;7.20;86.68
70968;BME280;58629;48.808;8.820;2023-04-01T04:52:32;95740.53;;;7.23;85.55
70968;BME280;58629;48.808;8.820;2023-04-01T04:54:57;95727.94;;;7.31;85.58
70968;BME280;58629;48.808;8.820;2023-04-01T04:57:23;95731.91;;;7.23;87.33
70968;BME280;58629;48.808;8.820;2023-04-01T04:59:48;95734.63;;;7.19;86.12
70968;BME280;58629;48.808;8.820;2023-04-01T05:02:13;95733.38;;;7.24;85.26
70968;BME280;58629;48.808;8.820;2023-04-01T05:04:38;95730.09;;;7.20;86.87
70968;BME280;58629;48.808;8.820;2023-04-01T05:07:04;95729.59;;;7.25;86.48
70968;BME280;58629;48.808;8.820;2023-04-01T05:09:30;95723.44;;;7.15;88.43
70968;BME280;58629;48.808;8.820;2023-04-01T05:11:56;95728.81;;;7.12;88.07
70968;BME280;58629;48.808;8.820;2023-04-01T05:14:21;95727.47;;;7.20;86.92
70968;BME280;58629;48.808;8.820;2023-04-01T05:16:46;95729.34;;;7.19;87.30
70968;BME280;58629;48.808;8.820;2023-04-01T05:19:11;95726.41;;;7.17;88.37
70968;BME280;58629;48.808;8.820;2023-04-01T05:21:37;95728.72;;;7.15;89.06
70968;BME280;58629;48.808;8.820;2023-04-01T05:24:02;95725.75;;;7.13;90.49
70968;BME280;58629;48.808;8.820;2023-04-01T05:26:28;95715.88;;;7.17;88.90
70968;BME280;58629;48.808;8.820;2023-04-01T05:28:53;95708.28;;;7.19;87.63
70968;BME280;58629;48.808;8.820;2023-04-01T05:31:18;95716.63;;;7.18;89.66
70968;BME280;58629;48.808;8.820;2023-04-01T05:33:44;95715.88;;;7.17;89.16
70968;BME280;58629;48.808;8.820;2023-04-01T05:36:14;95713.34;;;7.14;89.10
70968;BME280;58629;48.808;8.820;2023-04-01T05:38:40;95708.19;;;7.10;88.91
70968;BME280;58629;48.808;8.820;2023-04-01T05:41:05;95708.94;;;7.23;89.67
70968;BME280;58629;48.808;8.820;2023-04-01T05:43:31;95707.16;;;7.20;88.92
70968;BME280;58629;48.808;8.820;2023-04-01T05:45:57;95714.72;;;7.18;89.26
70968;BME280;58629;48.808;8.820;2023-04-01T05:48:22;95706.22;;;7.27;88.63
70968;BME280;58629;48.808;8.820;2023-04-01T05:50:47;95700.88;;;7.30;87.53
70968;BME280;58629;48.808;8.820;2023-04-01T05:53:13;95702.31;;;7.31;87.48
70968;BME280;58629;48.808;8.820;2023-04-01T05:55:38;95703.81;;;7.32;87.34
70968;BME280;58629;48.808;8.820;2023-04-01T05:58:03;95700.66;;;7.37;85.66
70968;BME280;58629;48.808;8.820;2023-04-01T06:00:29;95699.81;;;7.53;86.28
70968;BME280;58629;48.808;8.820;2023-04-01T06:02:54;95710.78;;;7.51;85.36
70968;BME280;58629;48.808;8.820;2023-04-01T06:05:25;95708.91;;;7.64;84.94
70968;BME280;58629;48.808;8.820;2023-04-01T06:07:57;95705.09;;;7.53;86.75
70968;BME280;58629;48.808;8.820;2023-04-01T06:18:44;95710.69;;;7.55;88.12
70968;BME280;58629;48.808;8.820;2023-04-01T06:24:37;95715.66;;;7.65;86.50
70968;BME280;58629;48.808;8.820;2023-04-01T06:35:08;95719.88;;;7.50;89.33
70968;BME280;58629;48.808;8.820;2023-04-01T06:38:26;95721.53;;;7.57;89.62
70968;BME280;58629;48.808;8.820;2023-04-01T06:43:41;95727.19;;;7.43;90.45
70968;BME280;58629;48.808;8.820;2023-04-01T06:46:43;95730.59;;;7.43;92.29
70968;BME280;58629;48.808;8.820;2023-04-01T06:49:17;95723.84;;;7.55;91.01
70968;BME280;58629;48.808;8.820;2023-04-01T06:52:15;95741.34;;;7.49;92.18
70968;BME280;58629;48.808;8.820;2023-04-01T06:54:50;95723.31;;;7.47;91.18
70968;BME280;58629;48.808;8.820;2023-04-01T06:57:42;95722.06;;;7.52;91.40
70968;BME280;58629;48.808;8.820;2023-04-01T07:00:29;95719.47;;;7.64;90.74
70968;BME280;58629;48.808;8.820;2023-04-01T07:05:34;95735.78;;;7.59;91.43
70968;BME280;58629;48.808;8.820;2023-04-01T07:08:03;95731.34;;;7.56;91.41
70968;BME280;58629;48.808;8.820;2023-04-01T07:10:44;95730.25;;;7.41;91.27
70968;BME280;58629;48.808;8.820;2023-04-01T07:13:42;95730.09;;;7.48;91.75
70968;BME280;58629;48.808;8.820;2023-04-01T07:16:16;95737.97;;;7.48;91.31
70968;BME280;58629;48.808;8.820;2023-04-01T07:21:35;95734.38;;;7.55;91.82
70968;BME280;58629;48.808;8.820;2023-04-01T07:24:13;95736.41;;;7.63;92.75
70968;BME280;58629;48.808;8.820;2023-04-01T07:26:42;95737.38;;;7.69;91.80
70968;BME280;58629;48.808;8.820;2023-04-01T07:29:12;95738.13;;;7.70;93.50
70968;BME280;58629;48.808;8.820;2023-04-01T07:31:54;95741.06;;;7.84;91.97
70968;BME280;58629;48.808;8.820;2023-04-01T07:34:25;95743.38;;;7.82;91.64
70968;BME280;58629;48.808;8.820;2023-04-01T07:37:13;95733.25;;;8.06;91.82
70968;BME280;58629;48.808;8.820;2023-04-01T07:47:59;95741.19;;;7.94;91.10
70968;BME280;58629;48.808;8.820;2023-04-01T07:50:32;95737.94;;;8.02;93.64
70968;BME280;58629;48.808;8.820;2023-04-01T07:58:40;95752.81;;;8.34;90.26
70968;BME280;58629;48.808;8.820;2023-04-01T08:04:05;95758.47;;;7.95;91.65
70968;BME280;58629;48.808;8.820;2023-04-01T08:06:43;95753.44;;;8.00;92.78
70968;BME280;58629;48.808;8.820;2023-04-01T08:09:36;95753.59;;;8.18;92.55
70968;BME280;58629;48.808;8.820;2023-04-01T08:17:40;95760.91;;;8.02;91.19
70968;BME280;58629;48.808;8.820;2023-04-01T08:22:45;95763.66;;;7.98;94.20
70968;BME280;58629;48.808;8.820;2023-04-01T08:25:20;95773.34;;;8.01;93.14
70968;BME280;58629;48.808;8.820;2023-04-01T08:27:51;95776.72;;;8.02;93.30
70968;BME280;58629;48.808;8.820;2023-04-01T08:30:21;95768.72;;;8.18;92.64
70968;BME280;58629;48.808;8.820;2023-04-01T08:33:02;95773.25;;;8.17;91.93
70968;BME280;58629;48.808;8.820;2023-04-01T08:38:54;95766.06;;;8.43;89.83
70968;BME280;58629;48.808;8.820;2023-04-01T08:44:40;95772.59;;;8.98;90.17
70968;BME280;58629;48.808;8.820;2023-04-01T08:56:11;95758.84;;;9.68;88.21
70968;BME280;58629;48.808;8.820;2023-04-01T09:04:43;95762.59;;;10.10;86.45
70968;BME280;58629;48.808;8.820;2023-04-01T09:07:25;95763.16;;;10.44;83.16
70968;BME280;58629;48.808;8.820;2023-04-01T09:10:19;95765.34;;;10.37;81.70
70968;BME280;58629;48.808;8.820;2023-04-01T09:21:09;95779.81;;;9.62;82.94
70968;BME280;58629;48.808;8.820;2023-04-01T09:23:52;95776.88;;;9.91;83.93
70968;BME280;58629;48.808;8.820;2023-04-01T09:26:39;95776.78;;;9.51;83.31
70968;BME280;58629;48.808;8.820;2023-04-01T09:32:07;95780.34;;;9.57;82.44
70968;BME280;58629;48.808;8.820;2023-04-01T09:34:55;95778.28;;;9.52;86.27
70968;BME280;58629;48.808;8.820;2023-04-01T09:40:37;95784.97;;;9.22;84.61
70968;BME280;58629;48.808;8.820;2023-04-01T09:45:46;95789.94;;;9.63;80.06
70968;BME280;58629;48.808;8.820;2023-04-01T10:17:17;95804.25;;;10.76;81.20
70968;BME280;58629;48.808;8.820;2023-04-01T10:25:32;95790.47;;;11.26;77.82
70968;BME280;58629;48.808;8.820;2023-04-01T10:36:55;95796.94;;;10.89;76.62
70968;BME280;58629;48.808;8.820;2023-04-01T10:45:09;95808.13;;;11.57;77.45
70968;BME280;58629;48.808;8.820;2023-04-01T10:51:01;95790.38;;;11.99;70.75
70968;BME280;58629;48.808;8.820;2023-04-01T10:59:15;95808.97;;;11.90;72.24
70968;BME280;58629;48.808;8.820;2023-04-01T11:10:55;95804.31;;;12.50;71.26
70968;BME280;58629;48.808;8.820;2023-04-01T11:31:09;95817.84;;;11.32;75.00
70968;BME280;58629;48.808;8.820;2023-04-01T11:33:43;95818.88;;;11.53;76.11
70968;BME280;58629;48.808;8.820;2023-04-01T11:38:57;95824.19;;;11.26;77.06
70968;BME280;58629;48.808;8.820;2023-04-01T11:49:52;95821.50;;;11.35;72.47
70968;BME280;58629;48.808;8.820;2023-04-01T11:55:30;95833.72;;;11.05;74.83
70968;BME280;58629;48.808;8.820;2023-04-01T11:58:36;95838.72;;;10.85;76.65
70968;BME280;58629;48.808;8.820;2023-04-01T12:04:04;95846.72;;;11.49;76.47
70968;BME280;58629;48.808;8.820;2023-04-01T12:07:00;95844.81;;;11.67;74.25
70968;BME280;58629;48.808;8.820;2023-04-01T12:09:44;95846.41;;;11.56;74.69
70968;BME280;58629;48.808;8.820;2023-04-01T12:18:00;95841.56;;;11.90;70.50
70968;BME280;58629;48.808;8.820;2023-04-01T12:26:15;95844.50;;;11.56;72.20
70968;BME280;58629;48.808;8.820;2023-04-01T12:32:09;95859.06;;;11.24;72.77
70968;BME280;58629;48.808;8.820;2023-04-01T12:34:57;95861.88;;;11.30;72.96
70968;BME280;58629;48.808;8.820;2023-04-01T12:40:38;95871.38;;;11.00;71.08
70968;BME280;58629;48.808;8.820;2023-04-01T12:45:54;95862.81;;;10.38;73.29
70968;BME280;58629;48.808;8.820;2023-04-01T12:48:34;95875.53;;;10.22;73.80
70968;BME280;58629;48.808;8.820;2023-04-01T12:51:13;95875.41;;;10.04;76.80
70968;BME280;58629;48.808;8.820;2023-04-01T13:01:59;95880.84;;;10.31;78.80
70968;BME280;58629;48.808;8.820;2023-04-01T13:04:56;95873.97;;;10.33;78.14
70968;BME280;58629;48.808;8.820;2023-04-01T13:15:43;95877.47;;;10.61;75.54
70968;BME280;58629;48.808;8.820;2023-04-01T13:18:40;95885.31;;;10.83;75.76
70968;BME280;58629;48.808;8.820;2023-04-01T13:29:23;95907.69;;;10.20;76.37
70968;BME280;58629;48.808;8.820;2023-04-01T13:32:12;95897.00;;;10.24;78.45
70968;BME280;58629;48.808;8.820;2023-04-01T13:43:25;95907.19;;;9.91;79.03
70968;BME280;58629;48.808;8.820;2023-04-01T13:49:11;95904.78;;;10.06;80.05
70968;BME280;58629;48.808;8.820;2023-04-01T13:51:48;95909.16;;;10.00;78.94
70968;BME280;58629;48.808;8.820;2023-04-01T14:03:36;95911.84;;;10.09;78.58
70968;BME280;58629;48.808;8.820;2023-04-01T14:08:55;95925.50;;;9.86;78.99
70968;BME280;58629;48.808;8.820;2023-04-01T14:14:11;95924.28;;;9.78;78.07
70968;BME280;58629;48.808;8.820;2023-04-01T14:22:38;95912.78;;;9.72;78.31
70968;BME280;58629;48.808;8.820;2023-04-01T14:25:32;95923.03;;;9.70;80.35
70968;BME280;58629;48.808;8.820;2023-04-01T14:39:47;95924.72;;;9.76;82.39
70968;BME280;58629;48.808;8.820;2023-04-01T14:51:02;95936.72;;;9.55;81.82
70968;BME280;58629;48.808;8.820;2023-04-01T14:53:31;95930.63;;;9.46;79.83
70968;BME280;58629;48.808;8.820;2023-04-01T14:56:00;95941.38;;;9.51;81.36
70968;BME280;58629;48.808;8.820;2023-04-01T14:58:44;95932.81;;;9.47;82.36
70968;BME280;58629;48.808;8.820;2023-04-01T15:01:33;95926.78;;;9.47;82.63
70968;BME280;58629;48.808;8.820;2023-04-01T15:18:09;95929.16;;;9.67;80.00
70968;BME280;58629;48.808;8.820;2023-04-01T15:31:27;95939.91;;;9.50;79.73
70968;BME280;58629;48.808;8.820;2023-04-01T15:39:58;95954.69;;;9.60;79.62
70968;BME280;58629;48.808;8.820;2023-04-01T15:42:48;95958.66;;;9.65;79.69
70968;BME280;58629;48.808;8.820;2023-04-01T15:45:26;95947.81;;;9.85;77.91
70968;BME280;58629;48.808;8.820;2023-04-01T16:02:47;95946.31;;;9.62;78.21
70968;BME280;58629;48.808;8.820;2023-04-01T16:05:30;95952.69;;;9.52;78.77
70968;BME280;58629;48.808;8.820;2023-04-01T16:16:24;95958.50;;;9.47;81.26
70968;BME280;58629;48.808;8.820;2023-04-01T16:21:49;95969.88;;;9.69;83.37
70968;BME280;58629;48.808;8.820;2023-04-01T16:24:48;95978.69;;;9.88;79.83
70968;BME280;58629;48.808;8.820;2023-04-01T16:29:56;95969.03;;;9.72;78.52
70968;BME280;58629;48.808;8.820;2023-04-01T16:32:45;95973.91;;;9.95;79.19
70968;BME280;58629;48.808;8.820;2023-04-01T16:35:28;95974.13;;;10.22;80.61
70968;BME280;58629;48.808;8.820;2023-04-01T16:43:35;95970.41;;;10.63;77.94
70968;BME280;58629;48.808;8.820;2023-04-01T16:46:18;95975.91;;;10.47;75.71
70968;BME280;58629;48.808;8.820;2023-04-01T16:51:20;95974.38;;;10.89;75.37
70968;BME280;58629;48.808;8.820;2023-04-01T16:53:49;95967.28;;;10.56;75.22
70968;BME280;58629;48.808;8.820;2023-04-01T16:56:23;95963.34;;;10.60;76.70
70968;BME280;58629;48.808;8.820;2023-04-01T16:59:02;95968.06;;;10.65;74.87
70968;BME280;58629;48.808;8.820;2023-04-01T17:01:47;95977.63;;;10.63;75.78
70968;BME280;58629;48.808;8.820;2023-04-01T17:07:21;95989.84;;;11.00;72.79
70968;BME280;58629;48.808;8.820;2023-04-01T17:21:10;96014.09;;;10.89;76.17
70968;BME280;58629;48.808;8.820;2023-04-01T17:23:43;96024.38;;;10.87;76.66
70968;BME280;58629;48.808;8.820;2023-04-01T17:26:28;96021.25;;;10.58;76.12
70968;BME280;58629;48.808;8.820;2023-04-01T17:34:46;96043.34;;;10.08;81.68
70968;BME280;58629;48.808;8.820;2023-04-01T17:40:50;96067.56;;;9.73;83.76
70968;BME280;58629;48.808;8.820;2023-04-01T17:45:49;96071.91;;;9.04;84.05
70968;BME280;58629;48.808;8.820;2023-04-01T17:56:30;96062.50;;;9.53;87.69
70968;BME280;58629;48.808;8.820;2023-04-01T17:59:05;96064.06;;;9.76;86.45
70968;BME280;58629;48.808;8.820;2023-04-01T18:10:51;96070.31;;;9.82;80.17
70968;BME280;58629;48.808;8.820;2023-04-01T18:13:42;96061.13;;;9.74;79.48
70968;BME280;58629;48.808;8.820;2023-04-01T18:22:08;96079.97;;;10.22;82.18
70968;BME280;58629;48.808;8.820;2023-04-01T18:27:40;96083.91;;;9.93;78.21
70968;BME280;58629;48.808;8.820;2023-04-01T18:30:17;96088.72;;;9.22;81.20
70968;BME280;58629;48.808;8.820;2023-04-01T18:32:53;96088.44;;;8.79;82.23
70968;BME280;58629;48.808;8.820;2023-04-01T18:38:18;96100.72;;;8.28;84.58
70968;BME280;58629;48.808;8.820;2023-04-01T18:46:55;96111.84;;;7.71;87.35
70968;BME280;58629;48.808;8.820;2023-04-01T18:51:56;96121.81;;;7.64;88.92
70968;BME280;58629;48.808;8.820;2023-04-01T18:54:45;96123.22;;;7.68;88.29
70968;BME280;58629;48.808;8.820;2023-04-01T18:57:15;96121.06;;;7.63;88.96
70968;BME280;58629;48.808;8.820;2023-04-01T18:59:45;96122.22;;;7.62;89.66
70968;BME280;58629;48.808;8.820;2023-04-01T19:02:30;96122.47;;;7.68;89.06
70968;BME280;58629;48.808;8.820;2023-04-01T19:19:10;96120.19;;;7.70;90.28
70968;BME280;58629;48.808;8.820;2023-04-01T19:21:42;96122.16;;;7.66;89.31
70968;BME280;58629;48.808;8.820;2023-04-01T19:32:55;96142.22;;;7.60;89.33
70968;BME280;58629;48.808;8.820;2023-04-01T19:35:40;96147.84;;;7.62;89.41
70968;BME280;58629;48.808;8.820;2023-04-01T19:38:30;96139.84;;;7.65;89.34
70968;BME280;58629;48.808;8.820;2023-04-01T19:41:22;96143.66;;;7.64;90.83
70968;BME280;58629;48.808;8.820;2023-04-01T19:46:35;96151.38;;;7.71;91.20
70968;BME280;58629;48.808;8.820;2023-04-01T19:49:17;96146.78;;;7.75;91.78
70968;BME280;58629;48.808;8.820;2023-04-01T19:54:36;96153.50;;;7.76;92.83
70968;BME280;58629;48.808;8.820;2023-04-01T20:00:24;96149.91;;;7.70;92.22
70968;BME280;58629;48.808;8.820;2023-04-01T20:08:21;96154.84;;;7.68;93.25
70968;BME280;58629;48.808;8.820;2023-04-01T20:11:05;96155.25;;;7.67;92.21
70968;BME280;58629;48.808;8.820;2023-04-01T20:19:39;96159.63;;;7.73;93.88
70968;BME280;58629;48.808;8.820;2023-04-01T20:25:13;96173.56;;;7.90;92.91
70968;BME280;58629;48.808;8.820;2023-04-01T20:27:47;96177.56;;;7.78;91.89
70968;BME280;58629;48.808;8.820;2023-04-01T20:30:27;96177.63;;;7.59;92.52
70968;BME280;58629;48.808;8.820;2023-04-01T20:44:09;96198.56;;;7.66;92.68
70968;BME280;58629;48.808;8.820;2023-04-01T20:46:48;96197.06;;;7.65;93.36
70968;BME280;58629;48.808;8.820;2023-04-01T20:49:39;96199.34;;;7.63;92.71
70968;BME280;58629;48.808;8.820;2023-04-01T20:54:58;96195.59;;;7.64;93.28
70968;BME280;58629;48.808;8.820;2023-04-01T20:57:38;96209.91;;;7.63;92.70
70968;BME280;58629;48.808;8.820;2023-04-01T21:00:24;96200.94;;;7.60;91.67
70968;BME280;58629;48.808;8.820;2023-04-01T21:03:03;96204.78;;;7.56;92.86
70968;BME280;58629;48.808;8.820;2023-04-01T21:06:13;96209.53;;;7.45;91.65
70968;BME280;58629;48.808;8.820;2023-04-01T21:08:56;96206.38;;;7.34;91.79
70968;BME280;58629;48.808;8.820;2023-04-01T21:14:35;96214.81;;;7.25;91.43
70968;BME280;58629;48.808;8.820;2023-04-01T21:17:15;96231.00;;;7.24;91.84
70968;BME280;58629;48.808;8.820;2023-04-01T21:28:25;96237.78;;;7.25;92.53
70968;BME280;58629;48.808;8.820;2023-04-01T21:36:02;96245.72;;;7.21;92.97
70968;BME280;58629;48.808;8.820;2023-04-01T21:38:46;96241.63;;;7.20;92.40
70968;BME280;58629;48.808;8.820;2023-04-01T21:56:03;96250.03;;;7.12;94.67
70968;BME280;58629;48.808;8.820;2023-04-01T22:04:24;96243.91;;;7.18;94.38
70968;BME280;58629;48.808;8.820;2023-04-01T22:07:06;96246.97;;;7.17;92.69
70968;BME280;58629;48.808;8.820;2023-04-01T22:12:48;96248.31;;;7.25;93.97
70968;BME280;58629;48.808;8.820;2023-04-01T22:15:58;96244.94;;;7.24;93.98
70968;BME280;58629;48.808;8.820;2023-04-01T22:21:48;96252.50;;;7.22;93.89
70968;BME280;58629;48.808;8.820;2023-04-01T22:27:18;96257.41;;;7.20;94.74
70968;BME280;58629;48.808;8.820;2023-04-01T22:30:01;96255.53;;;7.21;94.75
70968;BME280;58629;48.808;8.820;2023-04-01T22:32:44;96258.88;;;7.21;94.58
70968;BME280;58629;48.808;8.820;2023-04-01T22:41:08;96261.59;;;7.18;93.40
70968;BME280;58629;48.808;8.820;2023-04-01T22:43:40;96262.41;;;7.15;92.62
70968;BME280;58629;48.808;8.820;2023-04-01T22:46:31;96267.38;;;7.09;92.94
70968;BME280;58629;48.808;8.820;2023-04-01T22:49:21;96262.53;;;7.08;93.15
70968;BME280;58629;48.808;8.820;2023-04-01T22:51:57;96268.19;;;7.06;92.85
70968;BME280;58629;48.808;8.820;2023-04-01T22:54:51;96275.69;;;7.08;93.66